Time;durP1;ratioP1;P1;durP2;ratioP2;P2;SDS_P1;SDS_P2;PMS_P1;PMS_P2;Temp;Humidity;BMP_temperature;BMP_pressure;BME280_temperature;BME280_humidity;BME280_pressure;Samples;Min_cycle;Max_cycle;Signal;HPM_P1;HPM_P2
2023/05/14 00:01:51;;;;;;;24.23;12.82;;;;;;;;;;6154547;23;20017;-61
2023/05/14 00:04:18;;;;;;;26.10;13.63;;;;;;;;;;6154151;23;20018;-60
2023/05/14 00:06:44;;;;;;;24.55;12.20;;;;;;;;;;6154780;23;20137;-60
2023/05/14 00:09:11;;;;;;;25.52;12.77;;;;;;;;;;6128856;23;20021;-60
2023/05/14 00:11:37;;;;;;;22.58;13.40;;;;;;;;;;6154686;23;20017;-60
2023/05/14 00:14:03;;;;;;;20.25;12.68;;;;;;;;;;6154511;23;20021;-60
2023/05/14 00:16:29;;;;;;;24.85;12.52;;;;;;;;;;6154350;23;20032;-61
2023/05/14 00:18:55;;;;;;;23.17;12.68;;;;;;;;;;6155216;23;20388;-60
2023/05/14 00:21:21;;;;;;;20.92;12.23;;;;;;;;;;6153892;23;20029;-61
2023/05/14 00:23:47;;;;;;;23.45;12.32;;;;;;;;;;6153762;23;20021;-60
2023/05/14 00:26:13;;;;;;;20.23;12.75;;;;;;;;;;6128198;23;20160;-62
2023/05/14 00:28:39;;;;;;;22.98;12.43;;;;;;;;;;6154576;23;20028;-60
2023/05/14 00:31:05;;;;;;;19.85;12.13;;;;;;;;;;6154898;23;20028;-60
2023/05/14 00:33:31;;;;;;;23.80;13.27;;;;;;;;;;6153344;23;20343;-60
2023/05/14 00:35:57;;;;;;;23.10;12.40;;;;;;;;;;6127634;23;20021;-60
2023/05/14 00:38:26;;;;;;;20.30;11.88;;;;;;;;;;6154635;23;20097;-60
2023/05/14 00:40:52;;;;;;;20.42;11.98;;;;;;;;;;6154449;23;20029;-60
2023/05/14 00:43:22;;;;;;;19.90;11.88;;;;;;;;;;6154494;23;20025;-60
2023/05/14 00:45:52;;;;;;;17.05;10.45;;;;;;;;;;6127628;23;20026;-60
2023/05/14 00:48:19;;;;;;;18.92;10.70;;;;;;;;;;6154467;23;20076;-60
2023/05/14 00:50:45;;;;;;;18.83;11.60;;;;;;;;;;6154247;23;20383;-60
2023/05/14 00:53:12;;;;;;;18.98;10.77;;;;;;;;;;6127986;23;20032;-60
2023/05/14 00:55:38;;;;;;;19.50;12.15;;;;;;;;;;6154255;23;20017;-60
2023/05/14 00:58:09;;;;;;;18.08;11.65;;;;;;;;;;6154555;23;20022;-60
2023/05/14 01:00:36;;;;;;;16.52;10.73;;;;;;;;;;6153694;23;20022;-60
2023/05/14 01:03:06;;;;;;;19.25;11.43;;;;;;;;;;6128400;23;20025;-60
2023/05/14 01:05:52;;;;;;;20.77;11.33;;;;;;;;;;6125900;23;20077;-60
2023/05/14 01:08:18;;;;;;;18.38;10.82;;;;;;;;;;6153201;23;20022;-60
2023/05/14 01:10:49;;;;;;;19.77;11.07;;;;;;;;;;6154293;23;20017;-60
2023/05/14 01:13:25;;;;;;;17.80;11.38;;;;;;;;;;6154290;23;20017;-61
2023/05/14 01:15:51;;;;;;;19.35;11.77;;;;;;;;;;6153234;23;20020;-61
2023/05/14 01:18:18;;;;;;;19.40;11.30;;;;;;;;;;6154549;23;20036;-60
2023/05/14 01:20:45;;;;;;;22.33;11.13;;;;;;;;;;6127808;23;20014;-60
2023/05/14 01:23:11;;;;;;;18.50;11.02;;;;;;;;;;6153305;23;20025;-61
2023/05/14 01:25:37;;;;;;;21.52;10.70;;;;;;;;;;6153650;23;20320;-60
2023/05/14 01:28:10;;;;;;;19.35;11.50;;;;;;;;;;6196419;22;20349;-60
2023/05/14 01:30:39;;;;;;;21.92;10.18;;;;;;;;;;6190673;22;20025;-60
2023/05/14 01:33:13;;;;;;;18.63;11.32;;;;;;;;;;6214454;23;20028;-60
2023/05/14 01:35:40;;;;;;;16.60;10.63;;;;;;;;;;6214383;23;20076;-60
2023/05/14 01:38:10;;;;;;;19.98;11.15;;;;;;;;;;6214319;23;20112;-60
2023/05/14 01:40:36;;;;;;;;;;;10.00;99.90;;;;;;6214713;23;20028;-60
2023/05/14 01:43:02;;;;;;;22.05;11.40;;;;;;;;;;6212718;23;19915;-60
2023/05/14 01:45:29;;;;;;;21.00;11.43;;;;;;;;;;6214520;23;20099;-60
2023/05/14 01:47:55;;;;;;;18.95;11.10;;;;;;;;;;6215727;23;20377;-60
2023/05/14 01:52:56;;;;;;;19.85;11.70;;;;;;;;;;6236076;22;20028;-61
2023/05/14 01:55:26;;;;;;;18.83;11.95;;;;;;;;;;6245707;23;20027;-60
2023/05/14 01:57:52;;;;;;;17.55;10.48;;;;;;;;;;6245994;23;20126;-60
2023/05/14 02:00:19;;;;;;;20.48;11.13;;;;;;;;;;6245611;23;20027;-61
2023/05/14 02:02:45;;;;;;;20.30;11.23;;;;;;;;;;6245873;23;20327;-60
2023/05/14 02:05:11;;;;;;;22.58;12.40;;;;;;;;;;6245498;23;20035;-60
2023/05/14 02:07:38;;;;;;;22.90;11.63;;;;;;;;;;6245713;23;20372;-60
2023/05/14 02:10:04;;;;;;;19.25;10.85;;;;;;;;;;6219615;23;20075;-60
2023/05/14 02:12:30;;;;;;;19.92;11.63;;;;;;;;;;6244980;23;20051;-60
2023/05/14 02:14:56;;;;;;;24.08;11.95;;;;;;;;;;6245636;23;20019;-60
2023/05/14 02:17:22;;;;;;;20.27;11.75;;;;;;;;;;6218925;23;20024;-60
2023/05/14 02:19:48;;;;;;;20.30;11.88;;;;;;;;;;6246352;23;20012;-60
2023/05/14 02:22:14;;;;;;;20.50;13.02;;;;;;;;;;6219128;23;20344;-61
2023/05/14 02:24:40;;;;;;;25.73;12.48;;;;;;;;;;6245734;23;20345;-60
2023/05/14 02:27:06;;;;;;;21.85;12.63;;;;;;;;;;6246119;23;20024;-60
2023/05/14 02:29:32;;;;;;;26.90;13.95;;;;;;;;;;6218758;23;20437;-60
2023/05/14 02:31:58;;;;;;;25.77;12.70;;;;;;;;;;6218383;23;20048;-60
2023/05/14 02:34:24;;;;;;;24.08;13.93;;;;;;;;;;6244953;23;20027;-60
2023/05/14 02:36:50;;;;;;;26.17;13.15;;;;;;;;;;6246166;23;20019;-60
2023/05/14 02:39:16;;;;;;;25.58;13.57;;;;;;;;;;6245401;23;20024;-60
2023/05/14 02:41:42;;;;;;;24.65;14.27;;;;;;;;;;6245730;23;20441;-60
2023/05/14 02:44:08;;;;;;;23.73;14.38;;;;;;;;;;6244754;23;20018;-60
2023/05/14 02:46:34;;;;;;;26.15;14.00;;;;;;;;;;6245075;23;20026;-60
2023/05/14 02:49:01;;;;;;;23.77;14.10;;;;;;;;;;6219528;23;20016;-60
2023/05/14 02:51:27;;;;;;;25.40;14.70;;;;;;;;;;6245192;23;20027;-60
2023/05/14 02:53:53;;;;;;;22.38;13.43;;;;;;;;;;6244643;23;20329;-60
2023/05/14 02:56:20;;;;;;;23.80;13.02;;;;;;;;;;6244751;23;20020;-60
2023/05/14 02:58:46;;;;;;;22.30;13.10;;;;;;;;;;6245459;23;20042;-60
2023/05/14 03:01:12;;;;;;;28.20;15.15;;;;;;;;;;6244938;23;20020;-60
2023/05/14 03:03:38;;;;;;;22.73;14.32;;;;;;;;;;6245119;23;20063;-60
2023/05/14 03:06:05;;;;;;;24.08;15.43;;;;;;;;;;6245756;23;20095;-60
2023/05/14 03:08:30;;;;;;;22.80;14.15;;;;;;;;;;6245603;23;20059;-60
2023/05/14 03:10:56;;;;;;;28.35;14.82;;;;;;;;;;6245449;23;20307;-60
2023/05/14 03:13:22;;;;;;;23.30;13.75;;;;;;;;;;6244942;23;20031;-60
2023/05/14 03:15:53;;;;;;;24.30;14.30;;;;;;;;;;6244790;23;20020;-61
2023/05/14 03:18:19;;;;;;;;;;;9.70;99.90;;;;;;6218716;23;20329;-60
2023/05/14 03:20:45;;;;;;;21.60;13.35;;;;;;;;;;6245917;23;19915;-60
2023/05/14 03:23:11;;;;;;;26.15;13.35;;;;;;;;;;6244852;23;20098;-60
2023/05/14 03:25:37;;;;;;;27.38;13.27;;;;;;;;;;6245229;23;20380;-60
2023/05/14 03:28:03;;;;;;;27.58;14.50;;;;;;;;;;6246007;23;20046;-60
2023/05/14 03:30:29;;;;;;;23.15;13.48;;;;;;;;;;6244720;23;20315;-60
2023/05/14 03:32:55;;;;;;;28.42;14.65;;;;;;;;;;6245040;23;20020;-60
2023/05/14 03:35:21;;;;;;;23.75;12.77;;;;;;;;;;6245485;23;20031;-60
2023/05/14 03:37:47;;;;;;;22.50;13.07;;;;;;;;;;6218941;23;20020;-60
2023/05/14 03:40:13;;;;;;;25.95;13.63;;;;;;;;;;6245607;23;20024;-61
2023/05/14 03:42:39;;;;;;;26.13;13.52;;;;;;;;;;6218883;23;20039;-60
2023/05/14 03:45:05;;;;;;;22.05;12.80;;;;;;;;;;6244561;23;20016;-60
2023/05/14 03:47:31;;;;;;;19.48;13.15;;;;;;;;;;6244913;23;20024;-60
2023/05/14 03:49:58;;;;;;;22.38;13.77;;;;;;;;;;6245391;23;20012;-60
2023/05/14 03:52:24;;;;;;;24.30;13.65;;;;;;;;;;6244863;23;20020;-60
2023/05/14 03:54:50;;;;;;;20.77;12.85;;;;;;;;;;6244567;23;20023;-60
2023/05/14 03:57:16;;;;;;;24.13;13.05;;;;;;;;;;6245110;23;20024;-60
2023/05/14 03:59:42;;;;;;;22.65;13.20;;;;;;;;;;6244537;23;20047;-60
2023/05/14 04:02:08;;;;;;;25.67;13.57;;;;;;;;;;6244117;23;20337;-60
2023/05/14 04:04:34;;;;;;;24.63;12.60;;;;;;;;;;6244187;23;20031;-60
2023/05/14 04:07:00;;;;;;;27.23;14.27;;;;;;;;;;6245148;23;20012;-60
2023/05/14 04:09:26;;;;;;;26.15;13.80;;;;;;;;;;6244633;23;20345;-59
2023/05/14 04:11:52;;;;;;;25.83;14.50;;;;;;;;;;6218347;23;20016;-60
2023/05/14 04:14:18;;;;;;;26.98;14.05;;;;;;;;;;6243893;23;20091;-61
2023/05/14 04:16:44;;;;;;;31.67;16.15;;;;;;;;;;6244091;23;20056;-60
2023/05/14 04:19:10;;;;;;;30.20;14.57;;;;;;;;;;6244668;23;20467;-60
2023/05/14 04:21:36;;;;;;;30.00;15.18;;;;;;;;;;6244800;23;20020;-60
2023/05/14 04:24:02;;;;;;;30.13;14.32;;;;;;;;;;6244487;23;20035;-60
2023/05/14 04:26:28;;;;;;;28.77;15.80;;;;;;;;;;6244704;23;20047;-60
2023/05/14 04:28:54;;;;;;;30.23;14.70;;;;;;;;;;6244219;23;20024;-60
2023/05/14 04:31:20;;;;;;;30.15;14.93;;;;;;;;;;6244101;23;20027;-60
2023/05/14 04:33:46;;;;;;;30.23;15.02;;;;;;;;;;6243907;23;20051;-60
2023/05/14 04:36:12;;;;;;;34.13;15.98;;;;;;;;;;6244455;23;20062;-60
2023/05/14 04:38:38;;;;;;;27.98;15.18;;;;;;;;;;6244730;23;20058;-60
2023/05/14 04:41:04;;;;;;;28.17;13.40;;;;;;;;;;6244618;23;20337;-60
2023/05/14 04:43:31;;;;;;;29.17;15.40;;;;;;;;;;6243184;23;20432;-61
2023/05/14 04:45:57;;;;;;;24.38;13.77;;;;;;;;;;6242077;23;20016;-60
2023/05/14 04:48:23;;;;;;;31.65;13.93;;;;;;;;;;6243300;23;20019;-60
2023/05/14 04:50:49;;;;;;;24.55;12.50;;;;;;;;;;6244296;23;20027;-60
2023/05/14 04:53:15;;;;;;;26.35;13.30;;;;;;;;;;6244353;23;20022;-61
2023/05/14 04:55:41;;;;;;;26.23;13.93;;;;;;;;;;6243902;23;20231;-61
2023/05/14 04:58:07;;;;;;;34.35;14.40;;;;;;;;;;6243746;23;20042;-60
2023/05/14 05:00:34;;;;;;;29.13;14.13;;;;;;;;;;6244063;23;20295;-61
2023/05/14 05:03:00;;;;;;;31.52;13.57;;;;;;;;;;6218015;23;20031;-60
2023/05/14 05:05:26;;;;;;;29.80;13.90;;;;;;;;;;6243191;23;20020;-60
2023/05/14 05:07:52;;;;;;;24.40;13.48;;;;;;;;;;6244097;23;20372;-60
2023/05/14 05:10:18;;;;;;;31.45;13.73;;;;;;;;;;6243331;23;20035;-60
2023/05/14 05:12:44;;;;;;;27.25;13.82;;;;;;;;;;6216683;23;20476;-60
2023/05/14 05:15:10;;;;;;;33.20;13.98;;;;;;;;;;6243696;23;20016;-60
2023/05/14 05:17:36;;;;;;;33.70;13.88;;;;;;;;;;6243495;23;20440;-60
2023/05/14 05:20:04;;;;;;;30.98;12.38;;;;;;;;;;6243954;23;20023;-60
2023/05/14 05:22:30;;;;;;;26.75;12.73;;;;;;;;;;6243679;23;20012;-61
2023/05/14 05:24:57;;;;;;;28.90;12.30;;;;;;;;;;6244349;23;20070;-60
2023/05/14 05:27:23;;;;;;;24.65;12.15;;;;;;;;;;6243667;23;20024;-60
2023/05/14 05:29:49;;;;;;;21.40;11.90;;;;;;;;;;6244728;23;20056;-61
2023/05/14 05:32:15;;;;;;;28.70;13.05;;;;;;;;;;6244422;23;20020;-61
2023/05/14 05:34:41;;;;;;;26.20;11.55;;;;;;;;;;6244286;23;20031;-60
2023/05/14 05:37:26;;;;;;;28.17;11.27;;;;;;;;;;6216651;22;20020;-62
2023/05/14 05:39:59;;;;;;;27.42;11.40;;;;;;;;;;6237668;22;20027;-61
2023/05/14 05:42:25;;;;;;;24.67;10.85;;;;;;;;;;6227912;22;20039;-61
2023/05/14 05:44:51;;;;;;;21.80;11.57;;;;;;;;;;6213708;23;20068;-60
2023/05/14 05:47:17;;;;;;;25.38;11.85;;;;;;;;;;6213734;23;20029;-61
2023/05/14 05:49:43;;;;;;;25.92;11.52;;;;;;;;;;6214382;23;20019;-60
2023/05/14 05:52:09;;;;;;;23.00;13.15;;;;;;;;;;6214032;23;20084;-60
2023/05/14 05:54:35;;;;;;;24.27;11.57;;;;;;;;;;6212186;23;20020;-61
2023/05/14 05:57:01;;;;;;;24.45;11.25;;;;;;;;;;6213852;23;20047;-60
2023/05/14 05:59:27;;;;;;;29.35;11.57;;;;;;;;;;6212552;23;20020;-60
2023/05/14 06:01:53;;;;;;;48.72;30.15;;;;;;;;;;6243679;23;20023;-60
2023/05/14 06:04:19;;;;;;;48.50;26.42;;;;;;;;;;6243203;23;20095;-60
2023/05/14 06:06:45;;;;;;;45.78;28.52;;;;;;;;;;6243832;23;20054;-61
2023/05/14 06:09:12;;;;;;;22.50;11.32;;;;;;;;;;6243513;23;20341;-60
2023/05/14 06:11:38;;;;;;;53.75;31.05;;;;;;;;;;6244006;23;20059;-61
2023/05/14 06:14:04;;;;;;;23.80;13.65;;;;;;;;;;6243787;23;20044;-60
2023/05/14 06:16:30;;;;;;;24.08;11.63;;;;;;;;;;6244117;23;20433;-60
2023/05/14 06:18:56;;;;;;;35.33;25.65;;;;;;;;;;6244463;23;20031;-61
2023/05/14 06:21:22;;;;;;;26.30;13.68;;;;;;;;;;6242061;23;20567;-61
2023/05/14 06:23:48;;;;;;;28.25;13.68;;;;;;;;;;6216483;23;20314;-61
2023/05/14 06:26:14;;;;;;;17.52;9.75;;;;;;;;;;6243141;23;20023;-62
2023/05/14 06:28:40;;;;;;;21.17;12.15;;;;;;;;;;6217074;23;20020;-60
2023/05/14 06:31:06;;;;;;;21.45;14.80;;;;;;;;;;6244416;23;20031;-61
2023/05/14 06:33:32;;;;;;;20.13;9.50;;;;;;;;;;6245475;23;20016;-60
2023/05/14 06:35:59;;;;;;;19.08;9.98;;;;;;;;;;6245328;23;20012;-60
2023/05/14 06:38:25;;;;;;;20.27;9.40;;;;;;;;;;6244840;23;20326;-60
2023/05/14 06:40:52;;;;;;;22.90;9.70;;;;;;;;;;6219357;23;20024;-61
2023/05/14 06:43:18;;;;;;;20.20;11.00;;;;;;;;;;6245189;23;20027;-62
2023/05/14 06:45:44;;;;;;;19.58;9.35;;;;;;;;;;6246025;23;20043;-61
2023/05/14 06:48:12;;;;;;;21.70;9.60;;;;;;;;;;6245921;23;20019;-61
2023/05/14 06:50:38;;;;;;;16.92;10.35;;;;;;;;;;6246246;23;20133;-61
2023/05/14 06:53:04;;;;;;;20.27;10.38;;;;;;;;;;6218465;23;20016;-60
2023/05/14 06:55:30;;;;;;;23.83;10.85;;;;;;;;;;6244899;23;20441;-60
2023/05/14 06:57:56;;;;;;;27.13;12.10;;;;;;;;;;6246164;23;20066;-60
2023/05/14 07:00:22;;;;;;;14.82;9.85;;;;;;;;;;6245433;23;20023;-61
2023/05/14 07:02:48;;;;;;;29.50;11.20;;;;;;;;;;6245726;23;20052;-61
2023/05/14 07:05:14;;;;;;;20.13;11.50;;;;;;;;;;6244968;23;20016;-62
2023/05/14 07:07:40;;;;;;;21.20;10.73;;;;;;;;;;6216438;23;20027;-61
2023/05/14 07:10:07;;;;;;;15.60;9.98;;;;;;;;;;6245256;23;20031;-61
2023/05/14 07:12:33;;;;;;;20.05;9.85;;;;;;;;;;6245694;23;20016;-61
2023/05/14 07:14:59;;;;;;;16.95;9.32;;;;;;;;;;6218797;23;20048;-61
2023/05/14 07:17:25;;;;;;;23.05;10.48;;;;;;;;;;6243850;23;20027;-62
2023/05/14 07:19:51;;;;;;;20.10;9.05;;;;;;;;;;6246122;23;20020;-61
2023/05/14 07:22:17;;;;;;;20.08;9.88;;;;;;;;;;6217458;23;20310;-61
2023/05/14 07:24:43;;;;;;;22.17;10.25;;;;;;;;;;6218946;23;20026;-61
2023/05/14 07:27:09;;;;;;;18.30;8.60;;;;;;;;;;6245593;23;20020;-60
2023/05/14 07:29:35;;;;;;;15.05;8.65;;;;;;;;;;6218903;23;20020;-60
2023/05/14 07:32:01;;;;;;;16.80;7.07;;;;;;;;;;6244842;23;20097;-61
2023/05/14 07:34:27;;;;;;;17.10;8.15;;;;;;;;;;6244885;23;20445;-61
2023/05/14 07:36:53;;;;;;;17.90;8.88;;;;;;;;;;6244635;23;20019;-61
2023/05/14 07:39:19;;;;;;;18.70;8.77;;;;;;;;;;6244978;23;20059;-61
2023/05/14 07:41:46;;;;;;;19.50;8.40;;;;;;;;;;6218494;23;20031;-65
2023/05/14 07:44:12;;;;;;;20.45;8.90;;;;;;;;;;6245182;23;20645;-60
2023/05/14 07:46:38;;;;;;;15.80;7.72;;;;;;;;;;6244951;23;20031;-60
2023/05/14 07:49:04;;;;;;;16.40;7.00;;;;;;;;;;6245444;23;20091;-60
2023/05/14 07:51:32;;;;;;;23.90;10.55;;;;;;;;;;6244586;23;20018;-60
2023/05/14 07:54:01;;;;;;;17.13;7.90;;;;;;;;;;6244797;23;20020;-61
2023/05/14 07:56:27;;;;;;;15.52;6.60;;;;;;;;;;6244727;23;20024;-61
2023/05/14 07:58:53;;;;;;;18.60;8.75;;;;;;;;;;6244196;23;20012;-60
2023/05/14 08:01:19;;;;;;;13.57;7.10;;;;;;;;;;6245047;23;20020;-58
2023/05/14 08:03:45;;;;;;;16.25;8.57;;;;;;;;;;6244729;23;20333;-58
2023/05/14 08:06:11;;;;;;;15.18;7.32;;;;;;;;;;6217736;23;20079;-58
2023/05/14 08:08:37;;;;;;;34.42;14.88;;;;;;;;;;6243622;23;20016;-58
2023/05/14 08:11:03;;;;;;;20.98;9.07;;;;;;;;;;6243873;23;20020;-59
2023/05/14 08:13:29;;;;;;;34.35;14.13;;;;;;;;;;6244005;23;20023;-56
2023/05/14 08:15:55;;;;;;;39.55;16.88;;;;;;;;;;6244423;23;20020;-57
2023/05/14 08:18:21;;;;;;;29.45;12.23;;;;;;;;;;6243791;23;20066;-56
2023/05/14 08:20:47;;;;;;;17.52;7.50;;;;;;;;;;6243689;23;20066;-56
2023/05/14 08:23:13;;;;;;;31.42;16.52;;;;;;;;;;6244513;23;20500;-56
2023/05/14 08:25:39;;;;;;;48.92;24.13;;;;;;;;;;6244114;23;20091;-56
2023/05/14 08:28:06;;;;;;;36.03;14.15;;;;;;;;;;6241481;23;20416;-56
2023/05/14 08:30:32;;;;;;;49.33;19.75;;;;;;;;;;6243033;23;20026;-55
2023/05/14 08:32:58;;;;;;;101.20;42.15;;;;;;;;;;6243433;23;20087;-56
2023/05/14 08:35:25;;;;;;;14.65;6.63;;;;;;;;;;6244290;23;20099;-57
2023/05/14 08:37:51;;;;;;;13.82;6.03;;;;;;;;;;6243682;23;20062;-55
2023/05/14 08:40:17;;;;;;;21.35;11.90;;;;;;;;;;6243457;23;20027;-56
2023/05/14 08:42:44;;;;;;;16.05;6.70;;;;;;;;;;6243354;23;20109;-54
2023/05/14 08:45:20;;;;;;;16.48;7.05;;;18.10;99.90;;;;;;6244530;23;20330;-55
2023/05/14 08:47:50;;;;;;;15.75;7.75;;;;;;;;;;6244760;23;20508;-54
2023/05/14 08:50:18;;;;;;;13.32;6.75;;;;;;;;;;6246452;23;20061;-54
2023/05/14 08:52:44;;;;;;;15.35;8.23;;;;;;;;;;6246925;23;20019;-54
2023/05/14 08:55:11;;;;;;;18.65;7.88;;;;;;;;;;6247011;23;20012;-54
2023/05/14 08:57:38;;;;;;;12.45;6.65;;;;;;;;;;6246886;23;20087;-55
2023/05/14 09:00:08;;;;;;;13.68;7.22;;;;;;;;;;6246849;23;20016;-57
2023/05/14 09:02:35;;;;;;;16.90;7.03;;;;;;;;;;6220068;23;20435;-55
2023/05/14 09:05:02;;;;;;;16.35;6.75;;;;;;;;;;6246771;23;20012;-55
2023/05/14 09:07:28;;;;;;;14.15;7.35;;;;;;;;;;6246770;23;20024;-55
2023/05/14 09:09:54;;;;;;;11.02;6.07;;;;;;;;;;6246739;23;20016;-55
2023/05/14 09:12:21;;;;;;;13.25;6.13;;;;;;;;;;6246790;23;20008;-55
2023/05/14 09:14:49;;;;;;;14.98;6.82;;;;;;;;;;6247317;23;20019;-54
2023/05/14 09:17:16;;;;;;;14.70;7.38;;;;;;;;;;6246710;23;20012;-55
2023/05/14 09:19:42;;;;;;;15.07;6.57;;;;;;;;;;6246646;23;20127;-55
2023/05/14 09:22:12;;;;;;;12.88;6.22;;;;;;;;;;6219965;23;20016;-55
2023/05/14 09:24:39;;;;;;;16.38;6.85;;;;;;;;;;6243821;22;20016;-54
2023/05/14 19:33:13;;;;;;;21.35;13.18;;;;;;;;;;6246154;22;20027;-62
2023/05/14 19:35:39;;;;;;;26.88;15.55;;;;;;;;;;6247571;23;20016;-62
2023/05/14 19:38:09;;;;;;;21.63;13.55;;;;;;;;;;6247307;23;20317;-62
2023/05/14 19:40:35;;;;;;;22.42;14.35;;;;;;;;;;6248419;23;20078;-62
2023/05/14 19:43:01;;;;;;;22.02;15.30;;;;;;;;;;6247621;23;20016;-62
2023/05/14 19:45:28;;;;;;;25.98;16.08;;;;;;;;;;6221080;23;20305;-62
2023/05/14 19:47:54;;;;;;;24.73;16.35;;;;;;;;;;6248528;23;20019;-62
2023/05/14 19:50:20;;;;;;;22.92;16.55;;;;;;;;;;6247440;23;20012;-62
2023/05/14 19:52:46;;;;;;;23.25;15.82;;;;;;;;;;6247672;23;20020;-62
2023/05/14 19:55:12;;;;;;;24.38;16.13;;;;;;;;;;6221129;23;20020;-62
2023/05/14 19:57:38;;;;;;;24.15;16.98;;;;;;;;;;6247459;23;20016;-62
2023/05/14 20:00:07;;;;;;;26.88;16.08;;;;;;;;;;6220687;23;20070;-62
2023/05/14 20:02:33;;;;;;;26.95;16.92;;;;;;;;;;6247317;23;20016;-61
2023/05/14 20:04:59;;;;;;;26.25;15.70;;;;;;;;;;6247291;23;20020;-62
2023/05/14 20:07:25;;;;;;;29.17;17.40;;;;;;;;;;6195519;23;20019;-62
2023/05/14 20:09:51;;;;;;;32.67;17.75;;;;;;;;;;6220615;23;20103;-62
2023/05/14 20:12:17;;;;;;;28.02;17.20;;;;;;;;;;6246885;23;20016;-62
2023/05/14 20:14:44;;;;;;;26.15;16.90;;;;;;;;;;6220199;23;20055;-61
2023/05/14 20:17:12;;;;;;;30.30;17.98;;;;;;;;;;6220715;23;20444;-61
2023/05/14 20:19:38;;;;;;;28.60;19.08;;;;;;;;;;6246602;23;20020;-62
2023/05/14 20:22:04;;;;;;;29.23;18.52;;;;;;;;;;6247275;23;20016;-61
2023/05/14 20:24:30;;;;;;;32.78;19.00;;;;;;;;;;6246851;23;20023;-61
2023/05/14 20:26:56;;;;;;;28.27;18.95;;;;;;;;;;6220402;23;20016;-62
2023/05/14 20:29:22;;;;;;;30.63;19.38;;;;;;;;;;6220416;23;20026;-61
2023/05/14 20:31:48;;;;;;;34.83;19.85;;;;;;;;;;6247196;23;20012;-61
2023/05/14 20:34:18;;;;;;;30.30;20.60;;;;;;;;;;6220039;23;20038;-61
2023/05/14 20:36:44;;;;;;;36.13;21.52;;;;;;;;;;6219795;23;20008;-61
2023/05/14 20:39:10;;;;;;;33.15;21.02;;;;;;;;;;6247031;23;20020;-61
2023/05/14 20:41:37;;;;;;;38.47;21.25;;;;;;;;;;6247386;23;20142;-61
2023/05/14 20:44:03;;;;;;;32.78;21.48;;;;;;;;;;6247061;23;20115;-61
2023/05/14 20:46:29;;;;;;;35.17;21.92;;;;;;;;;;6219820;23;20020;-61
2023/05/14 20:48:56;;;;;;;35.67;21.48;;;;;;;;;;6247567;23;20023;-61
2023/05/14 20:51:22;;;;;;;32.60;19.90;;;;;;;;;;6220949;23;20016;-62
2023/05/14 20:53:48;;;;;;;32.47;21.17;;;;;;;;;;6220228;23;20012;-61
2023/05/14 20:56:14;;;;;;;35.45;21.63;;;;;;;;;;6220183;23;20087;-61
2023/05/14 20:58:40;;;;;;;32.47;20.98;;;;;;;;;;6220161;23;20020;-61
2023/05/14 21:01:06;;;;;;;39.72;22.65;;;;;;;;;;6246923;23;20019;-61
2023/05/14 21:03:35;;;;;;;39.67;22.38;;;;;;;;;;6246886;23;20020;-61
2023/05/14 21:06:02;;;;;;;36.53;21.48;;;;;;;;;;6246790;23;20016;-61
2023/05/14 21:08:28;;;;;;;33.67;21.58;;;;;;;;;;6246873;23;20324;-61
2023/05/14 21:10:54;;;;;;;39.45;22.00;;;;;;;;;;6246759;23;20024;-61
2023/05/14 21:13:20;;;;;;;35.47;22.58;;;;;;;;;;6247419;23;20039;-61
2023/05/14 21:15:46;;;;;;;37.13;22.27;;;;;;;;;;6220151;23;20404;-61
2023/05/14 21:18:12;;;;;;;38.15;20.80;;;;;;;;;;6247068;23;20077;-61
2023/05/14 21:20:38;;;;;;;35.92;22.48;;;;;;;;;;6247250;23;20022;-61
2023/05/14 21:23:04;;;;;;;32.42;21.52;;;;;;;;;;6246723;23;20018;-61
2023/05/14 21:25:30;;;;;;;41.72;23.48;;;;;;;;;;6246683;23;20549;-61
2023/05/14 21:27:56;;;;;;;32.95;22.58;;;;;;;;;;6247000;23;20035;-61
2023/05/14 21:30:22;;;;;;;35.58;22.20;;;;;;;;;;6219760;23;20298;-61
2023/05/14 21:32:48;;;;;;;32.53;22.25;;;;;;;;;;6246106;23;20501;-61
2023/05/14 21:35:14;;;;;;;39.10;21.98;;;;;;;;;;6219828;23;20023;-61
2023/05/14 21:37:40;;;;;;;35.00;21.13;;;;;;;;;;6220714;23;20016;-61
2023/05/14 21:40:11;;;;;;;36.13;22.02;;;;;;;;;;6246624;23;20047;-61
2023/05/14 21:42:38;;;;;;;33.40;20.88;;;;;;;;;;6247338;23;20063;-61
2023/05/14 21:45:05;;;;;;;37.85;21.63;;;;;;;;;;6246656;23;20009;-61
2023/05/14 21:47:32;;;;;;;38.42;22.38;;;;;;;;;;6220386;23;20121;-61
2023/05/14 21:49:58;;;;;;;34.13;23.33;;;;;;;;;;6246853;23;20066;-61
2023/05/14 21:52:24;;;;;;;40.22;22.48;;;;;;;;;;6246524;23;20076;-61
2023/05/14 21:54:50;;;;;;;38.38;22.27;;;;;;;;;;6219703;23;20016;-61
2023/05/14 21:57:17;;;;;;;37.70;21.20;;;;;;;;;;6246053;23;20365;-61
2023/05/14 21:59:42;;;;;;;37.38;22.48;;;;;;;;;;6220433;23;20020;-61
2023/05/14 22:02:08;;;;;;;34.08;20.73;;;;;;;;;;6220478;23;20317;-60
2023/05/14 22:04:35;;;;;;;32.47;20.75;;;;;;;;;;6248616;23;20016;-61
2023/05/14 22:07:01;;;;;;;36.88;20.00;;;;;;;;;;6248614;23;20066;-60
2023/05/14 22:09:29;;;;;;;33.47;21.05;;;;;;;;;;6249234;23;20091;-62
2023/05/14 22:11:56;;;;;;;34.67;22.00;;;;;;;;;;6221381;23;20012;-62
2023/05/14 22:14:22;;;;;;;43.67;22.88;;;;;;;;;;6248529;23;20020;-61
2023/05/14 22:16:48;;;;;;;38.10;22.98;;;;;;;;;;6248002;23;20009;-61
2023/05/14 22:19:15;;;;;;;36.00;20.95;;;;;;;;;;6248480;23;20012;-61
2023/05/14 22:21:41;;;;;;;37.92;22.88;;;;;;;;;;6221583;23;20310;-61
2023/05/14 22:24:07;;;;;;;37.72;23.00;;;;;;;;;;6221690;23;20384;-61
2023/05/14 22:26:34;;;;;;;34.80;22.27;;;;;;;;;;6248358;23;20014;-61
2023/05/14 22:29:00;;;;;;;39.58;22.98;;;;;;;;;;6248370;23;20027;-61
2023/05/14 22:31:26;;;;;;;37.95;23.13;;;;;;;;;;6248119;23;20012;-61
2023/05/14 22:33:52;;;;;;;41.50;24.23;;;;;;;;;;6248345;23;20433;-61
2023/05/14 22:36:18;;;;;;;38.03;22.92;;;;;;;;;;6196285;23;20012;-61
2023/05/14 22:38:44;;;;;;;36.97;23.17;;;;;;;;;;6248903;23;20019;-61
2023/05/14 22:41:10;;;;;;;41.20;24.20;;;;;;;;;;6248183;23;20047;-60
2023/05/14 22:43:36;;;;;;;44.65;25.05;;;;;;;;;;6221819;23;20020;-60
2023/05/14 22:46:03;;;;;;;40.95;24.52;;;;;;;;;;6221668;23;20096;-61
2023/05/14 22:48:29;;;;;;;40.55;24.58;;;;;;;;;;6248102;23;20016;-61
2023/05/14 22:50:55;;;;;;;45.88;24.98;;;;;;;;;;6247641;23;20321;-61
2023/05/14 22:53:21;;;;;;;47.17;25.35;;;;;;;;;;6222280;23;20424;-61
2023/05/14 22:55:47;;;;;;;43.17;25.05;;;;;;;;;;6196157;23;20023;-61
2023/05/14 22:58:13;;;;;;;49.22;28.15;;;;;;;;;;6248022;23;20012;-61
2023/05/14 23:00:39;;;;;;;47.08;25.25;;;;;;;;;;6247873;23;20016;-60
2023/05/14 23:03:05;;;;;;;46.92;27.02;;;;;;;;;;6247958;23;20012;-60
2023/05/14 23:05:31;;;;;;;45.75;26.65;;;;;;;;;;6247974;23;20022;-60
2023/05/14 23:07:57;;;;;;;46.85;24.73;;;;;;;;;;6247956;23;20490;-60
2023/05/14 23:10:23;;;;;;;48.95;24.65;;;;;;;;;;6247964;23;20313;-60
2023/05/14 23:12:49;;;;;;;45.70;25.38;;;;;;;;;;6247770;23;20015;-61
2023/05/14 23:15:15;;;;;;;45.20;25.60;;;;;;;;;;6221101;23;20019;-60
2023/05/14 23:17:41;;;;;;;48.20;27.38;;;;;;;;;;6247795;23;20016;-60
2023/05/14 23:20:11;;;;;;;50.45;27.25;;;;;;;;;;6247934;23;20016;-60
2023/05/14 23:22:38;;;;;;;45.45;23.30;;;;;;;;;;6247867;23;20016;-60
2023/05/14 23:25:04;;;;;;;53.40;27.15;;;;;;;;;;6248151;23;20426;-60
2023/05/14 23:27:30;;;;;;;47.70;26.33;;;;;;;;;;6247810;23;20094;-60
2023/05/14 23:29:56;;;;;;;47.35;26.35;;;;;;;;;;6247777;23;20047;-60
2023/05/14 23:32:22;;;;;;;52.15;27.13;;;;;;;;;;6247589;23;20067;-61
2023/05/14 23:34:48;;;;;;;47.90;25.02;;;;;;;;;;6220606;23;20020;-61
2023/05/14 23:37:14;;;;;;;45.22;24.60;;;;;;;;;;6220468;23;20058;-61
2023/05/14 23:39:40;;;;;;;48.45;26.08;;;;;;;;;;6220271;23;20086;-61
2023/05/14 23:42:06;;;;;;;45.15;24.55;;;;;;;;;;6247689;23;20023;-60
2023/05/14 23:44:32;;;;;;;45.97;26.30;;;;;;;;;;6220477;23;20428;-60
2023/05/14 23:46:58;;;;;;;44.25;24.38;;;;;;;;;;6247681;23;20049;-60
2023/05/14 23:49:24;;;;;;;43.17;24.83;;;;;;;;;;6247584;23;20023;-60
2023/05/14 23:51:50;;;;;;;55.08;27.10;;;;;;;;;;6220785;23;20456;-60
2023/05/14 23:54:16;;;;;;;49.33;25.77;;;;;;;;;;6247606;23;20019;-60
2023/05/14 23:56:42;;;;;;;52.42;27.92;;;;;;;;;;6221015;23;20407;-60
2023/05/14 23:59:08;;;;;;;51.30;28.48;;;;;;;;;;6220697;23;20023;-60
